Time;durP1;ratioP1;P1;durP2;ratioP2;P2;SDS_P1;SDS_P2;PMS_P1;PMS_P2;Temp;Humidity;BMP_temperature;BMP_pressure;BME280_temperature;BME280_humidity;BME280_pressure;Samples;Min_cycle;Max_cycle;Signal;HPM_P1;HPM_P2
2022/10/13 00:01:51;;;;;;;19.60;9.90;;;7.40;99.90;;;;;;5071825;28;20201;-70
2022/10/13 00:04:18;;;;;;;19.90;9.50;;;7.40;99.90;;;;;;5069294;28;20632;-70
2022/10/13 00:06:46;;;;;;;22.47;10.97;;;7.40;99.90;;;;;;5070047;28;20254;-71
2022/10/13 00:09:13;;;;;;;21.50;10.40;;;7.40;99.90;;;;;;5067831;28;20679;-71
2022/10/13 00:11:40;;;;;;;17.93;9.43;;;7.50;99.90;;;;;;5051585;28;20525;-70
2022/10/13 00:14:06;;;;;;;19.10;9.63;;;7.40;99.90;;;;;;5068180;28;20570;-70
2022/10/13 00:16:33;;;;;;;16.37;8.90;;;7.40;99.90;;;;;;5071718;28;20561;-70
2022/10/13 00:19:00;;;;;;;17.63;8.90;;;7.50;99.90;;;;;;5074593;28;20208;-70
2022/10/13 00:21:28;;;;;;;18.77;8.93;;;7.40;99.90;;;;;;5058682;28;20217;-70
2022/10/13 00:23:56;;;;;;;16.60;9.00;;;7.40;99.90;;;;;;5056732;28;20197;-69
2022/10/13 00:26:25;;;;;;;19.27;8.40;;;7.40;99.90;;;;;;5065683;28;20552;-69
2022/10/13 00:28:52;;;;;;;18.97;9.17;;;7.40;99.90;;;;;;5059547;28;20220;-70
2022/10/13 00:31:20;;;;;;;19.30;9.60;;;7.40;99.90;;;;;;5061037;28;20209;-70
2022/10/13 00:33:48;;;;;;;21.67;9.77;;;7.40;99.90;;;;;;5068525;28;20229;-70
2022/10/13 00:36:15;;;;;;;18.97;9.43;;;7.40;99.90;;;;;;5075447;28;20235;-69
2022/10/13 00:38:43;;;;;;;21.93;9.80;;;7.40;99.90;;;;;;5071398;28;20205;-69
2022/10/13 00:41:11;;;;;;;19.60;9.43;;;7.40;99.90;;;;;;5075422;28;20212;-70
2022/10/13 00:43:52;;;;;;;25.60;10.73;;;7.40;99.90;;;;;;5076156;28;20215;-70
2022/10/13 00:46:18;;;;;;;19.93;10.20;;;7.30;99.90;;;;;;5060294;28;20205;-69
2022/10/13 00:48:46;;;;;;;25.67;10.93;;;7.40;99.90;;;;;;5055263;28;20229;-69
2022/10/13 00:51:17;;;;;;;22.33;10.70;;;7.30;99.90;;;;;;5054904;28;20727;-70
2022/10/13 00:53:46;;;;;;;21.43;10.27;;;7.40;99.90;;;;;;5055260;28;20263;-71
2022/10/13 00:56:18;;;;;;;24.30;9.93;;;7.40;99.90;;;;;;5055129;28;20690;-69
2022/10/13 00:58:47;;;;;;;22.17;9.40;;;7.40;99.90;;;;;;5054863;28;20190;-70
2022/10/13 01:01:14;;;;;;;23.13;10.47;;;7.40;99.90;;;;;;5071960;28;20200;-70
2022/10/13 01:03:41;;;;;;;21.10;10.37;;;7.40;99.90;;;;;;5072731;28;20226;-69
2022/10/13 01:06:08;;;;;;;17.70;9.03;;;7.40;99.90;;;;;;5074537;28;20219;-70
2022/10/13 01:08:35;;;;;;;21.60;9.97;;;7.40;99.90;;;;;;5074948;28;20224;-70
2022/10/13 01:11:17;;;;;;;17.57;8.70;;;7.40;99.90;;;;;;5074165;28;20209;-68
2022/10/13 01:13:52;;;;;;;19.83;9.33;;;7.40;99.90;;;;;;5067372;28;20193;-70
2022/10/13 01:16:24;;;;;;;19.00;9.77;;;7.40;99.90;;;;;;5054721;28;20208;-70
2022/10/13 01:18:57;;;;;;;19.27;9.00;;;7.50;99.90;;;;;;5054782;28;20189;-69
2022/10/13 01:21:33;;;;;;;19.00;9.30;;;7.50;99.90;;;;;;5054656;28;20189;-70
2022/10/13 01:24:40;;;;;;;19.73;9.20;;;7.50;99.90;;;;;;5054957;28;20193;-69
2022/10/13 01:27:29;;;;;;;21.20;9.20;;;7.60;99.90;;;;;;5054279;28;20189;-70
2022/10/13 01:30:16;;;;;;;16.83;9.23;;;7.60;99.90;;;;;;5070103;28;20304;-70
2022/10/13 01:33:06;;;;;;;20.57;9.57;;;7.60;99.90;;;;;;5074202;28;20184;-70
2022/10/13 01:35:47;;;;;;;19.63;9.07;;;7.60;99.90;;;;;;5070006;28;20570;-70
2022/10/13 01:38:23;;;;;;;18.37;9.33;;;7.60;99.90;;;;;;5074875;28;20192;-69
2022/10/13 01:40:58;;;;;;;19.27;8.87;;;7.60;99.90;;;;;;5074649;28;20188;-71
2022/10/13 01:43:30;;;;;;;18.07;8.77;;;7.60;99.90;;;;;;5069811;28;20219;-69
2022/10/13 01:46:03;;;;;;;19.50;9.53;;;7.60;99.90;;;;;;5073856;28;20189;-69
2022/10/13 01:48:31;;;;;;;18.93;9.63;;;7.60;99.90;;;;;;5073960;28;20566;-69
2022/10/13 01:50:59;;;;;;;26.77;10.87;;;7.60;99.90;;;;;;5073687;28;20232;-70
2022/10/13 01:53:27;;;;;;;18.30;10.27;;;7.70;99.90;;;;;;5073686;28;20205;-69
2022/10/13 01:55:56;;;;;;;22.27;10.27;;;7.70;99.90;;;;;;5073646;28;20243;-70
2022/10/13 01:58:24;;;;;;;19.90;9.60;;;7.70;99.90;;;;;;5054544;28;20205;-70
2022/10/13 02:01:14;;;;;;;20.63;10.17;;;7.70;99.90;;;;;;5053635;28;20201;-70
2022/10/13 02:03:52;;;;;;;24.90;9.83;;;7.70;99.90;;;;;;5055848;28;20198;-69
2022/10/13 02:06:22;;;;;;;18.10;9.87;;;7.60;99.90;;;;;;5053140;28;20197;-70
2022/10/13 02:08:57;;;;;;;21.20;9.67;;;7.60;99.90;;;;;;5053409;28;20196;-70
2022/10/13 02:11:24;;;;;;;25.47;10.80;;;7.60;99.90;;;;;;5053403;28;20197;-70
2022/10/13 02:13:58;;;;;;;19.97;9.83;;;7.70;99.90;;;;;;5053395;28;20663;-70
2022/10/13 02:16:29;;;;;;;19.10;9.87;;;7.70;99.90;;;;;;5054760;28;20235;-69
2022/10/13 02:18:57;;;;;;;16.47;9.33;;;7.70;99.90;;;;;;5073443;28;20196;-70
2022/10/13 02:21:25;;;;;;;28.33;9.83;;;7.70;99.90;;;;;;5071063;28;20204;-69
2022/10/13 02:23:52;;;;;;;17.07;8.40;;;7.70;99.90;;;;;;5053705;28;20255;-70
2022/10/13 02:26:19;;;;;;;25.23;10.97;;;7.70;99.90;;;;;;5055157;28;20215;-68
2022/10/13 02:28:45;;;;;;;19.10;9.97;;;7.80;99.90;;;;;;5053190;28;20546;-70
2022/10/13 02:31:12;;;;;;;22.70;10.10;;;7.80;99.90;;;;;;5053016;28;20667;-71
2022/10/13 02:33:40;;;;;;;19.73;8.50;;;7.80;99.90;;;;;;5053128;28;20689;-71
2022/10/13 02:36:07;;;;;;;16.77;8.40;;;7.80;99.90;;;;;;5052595;28;20210;-70
2022/10/13 02:38:34;;;;;;;18.03;8.50;;;7.80;99.90;;;;;;5072887;28;20200;-70
2022/10/13 02:41:01;;;;;;;19.77;9.37;;;7.80;99.90;;;;;;5071923;28;20210;-70
2022/10/13 02:43:28;;;;;;;16.07;8.67;;;7.80;99.90;;;;;;5072690;28;20209;-70
2022/10/13 02:45:55;;;;;;;18.37;9.03;;;7.80;99.90;;;;;;5072441;28;20211;-71
2022/10/13 02:48:22;;;;;;;18.73;9.20;;;7.80;99.90;;;;;;5072803;28;20201;-72
2022/10/13 02:50:50;;;;;;;17.03;8.97;;;7.90;99.90;;;;;;5070611;28;20243;-70
2022/10/13 02:53:17;;;;;;;23.40;10.77;;;7.90;99.90;;;;;;5072481;28;20282;-70
2022/10/13 02:55:43;;;;;;;31.50;11.57;;;7.90;99.90;;;;;;5072780;28;20211;-70
2022/10/13 02:58:10;;;;;;;21.17;10.57;;;7.90;99.90;;;;;;5071990;28;20212;-69
2022/10/13 03:00:38;;;;;;;22.80;10.20;;;7.90;99.90;;;;;;5072248;28;20208;-70
2022/10/13 03:03:05;;;;;;;21.33;10.30;;;7.90;99.90;;;;;;5072468;28;20262;-72
2022/10/13 03:05:32;;;;;;;20.47;10.33;;;7.90;99.90;;;;;;5064281;28;20209;-71
2022/10/13 03:08:00;;;;;;;20.30;10.53;;;7.90;99.90;;;;;;5069649;28;20230;-70
2022/10/13 03:10:28;;;;;;;20.80;9.97;;;7.90;99.90;;;;;;5071980;28;20228;-69
2022/10/13 03:12:55;;;;;;;23.77;10.23;;;7.90;99.90;;;;;;5071859;28;20212;-70
2022/10/13 03:15:22;;;;;;;18.70;9.47;;;7.90;99.90;;;;;;5064074;28;20209;-70
2022/10/13 03:17:49;;;;;;;23.47;10.57;;;7.90;99.90;;;;;;5051984;28;20201;-70
2022/10/13 03:20:16;;;;;;;20.20;10.23;;;7.90;99.90;;;;;;5052136;28;20224;-70
2022/10/13 03:22:43;;;;;;;19.13;10.23;;;7.90;99.90;;;;;;5052418;28;20201;-70
2022/10/13 03:25:11;;;;;;;18.90;10.27;;;7.90;99.90;;;;;;5051796;28;20206;-71
2022/10/13 03:27:38;;;;;;;20.53;9.20;;;8.00;99.90;;;;;;5052461;28;20213;-69
2022/10/13 03:30:05;;;;;;;24.00;10.30;;;8.00;99.90;;;;;;5059634;28;20213;-69
2022/10/13 03:32:32;;;;;;;24.27;9.93;;;7.90;99.90;;;;;;5052271;28;20224;-70
2022/10/13 03:34:59;;;;;;;27.83;10.80;;;7.90;99.90;;;;;;5051739;28;20205;-70
2022/10/13 03:37:28;;;;;;;21.90;10.67;;;7.90;99.90;;;;;;5051834;28;20209;-70
2022/10/13 03:39:55;;;;;;;22.43;11.20;;;7.80;99.90;;;;;;5051812;28;20565;-69
2022/10/13 03:42:23;;;;;;;25.00;10.33;;;7.80;99.90;;;;;;5054046;28;20215;-70
2022/10/13 03:44:50;;;;;;;20.20;9.70;;;7.80;99.90;;;;;;5069239;28;20207;-69
2022/10/13 03:47:17;;;;;;;21.13;10.13;;;7.80;99.90;;;;;;5055796;28;20213;-70
2022/10/13 03:49:44;;;;;;;17.83;9.03;;;7.70;99.90;;;;;;5051499;28;20217;-69
2022/10/13 03:52:11;;;;;;;17.57;9.07;;;7.70;99.90;;;;;;5051049;28;20581;-71
2022/10/13 03:54:38;;;;;;;19.97;9.50;;;7.70;99.90;;;;;;5051905;28;20554;-72
2022/10/13 03:57:04;;;;;;;23.47;10.63;;;7.80;99.90;;;;;;5051686;28;20681;-71
2022/10/13 03:59:32;;;;;;;20.40;9.60;;;7.80;99.90;;;;;;5064090;28;20717;-70
2022/10/13 04:01:59;;;;;;;19.43;10.17;;;7.80;99.90;;;;;;5071985;28;20204;-71
2022/10/13 04:04:26;;;;;;;20.77;10.20;;;7.80;99.90;;;;;;5072282;28;20201;-71
2022/10/13 04:06:53;;;;;;;25.63;11.43;;;7.80;99.90;;;;;;5072079;28;20555;-71
2022/10/13 04:09:20;;;;;;;23.53;10.57;;;7.80;99.90;;;;;;5072272;28;20539;-71
2022/10/13 04:11:49;;;;;;;22.03;10.17;;;7.80;99.90;;;;;;5072053;28;20557;-70
2022/10/13 04:14:16;;;;;;;26.87;10.87;;;7.80;99.90;;;;;;5057901;28;20208;-71
2022/10/13 04:16:44;;;;;;;21.20;10.63;;;7.80;99.90;;;;;;5052103;28;20295;-70
2022/10/13 04:19:12;;;;;;;19.33;9.97;;;7.80;99.90;;;;;;5062528;28;20208;-70
2022/10/13 04:21:39;;;;;;;19.27;9.57;;;7.80;99.90;;;;;;5071621;28;20205;-72
2022/10/13 04:24:07;;;;;;;25.17;10.57;;;7.80;99.90;;;;;;5071909;28;20209;-71
2022/10/13 04:26:35;;;;;;;18.87;10.43;;;7.80;99.90;;;;;;5071391;28;20208;-71
2022/10/13 04:29:04;;;;;;;23.53;10.57;;;7.80;99.90;;;;;;5066578;28;20212;-70
2022/10/13 04:31:31;;;;;;;16.80;9.97;;;7.90;99.90;;;;;;5051417;28;20225;-71
2022/10/13 04:33:59;;;;;;;20.83;10.37;;;7.90;99.90;;;;;;5051323;28;20208;-70
2022/10/13 04:36:26;;;;;;;18.57;10.70;;;7.90;99.90;;;;;;5051612;28;20202;-73
2022/10/13 04:38:54;;;;;;;24.97;10.90;;;7.90;99.90;;;;;;5050315;28;20202;-70
2022/10/13 04:41:21;;;;;;;18.83;9.87;;;7.90;99.90;;;;;;5058765;28;20220;-71
2022/10/13 04:43:49;;;;;;;24.37;10.77;;;7.90;99.90;;;;;;5059052;28;20301;-71
2022/10/13 04:46:18;;;;;;;23.53;10.83;;;7.90;99.90;;;;;;5056501;28;20201;-73
2022/10/13 04:48:46;;;;;;;19.53;9.97;;;7.90;99.90;;;;;;5058155;28;20213;-70
2022/10/13 04:51:17;;;;;;;20.23;10.70;;;7.90;99.90;;;;;;5059758;28;20233;-72
2022/10/13 04:53:44;;;;;;;17.63;9.70;;;7.90;99.90;;;;;;5059061;28;20236;-71
2022/10/13 04:56:13;;;;;;;20.60;10.10;;;8.00;99.90;;;;;;5060901;28;20659;-70
2022/10/13 04:58:41;;;;;;;28.00;11.00;;;8.00;99.90;;;;;;5059889;28;20251;-71
2022/10/13 05:01:11;;;;;;;21.27;10.80;;;8.00;99.90;;;;;;5059277;28;20194;-71
2022/10/13 05:03:38;;;;;;;22.83;11.30;;;8.00;99.90;;;;;;5059646;28;20208;-70
2022/10/13 05:06:06;;;;;;;22.70;11.23;;;8.00;99.90;;;;;;5064441;28;20201;-71
2022/10/13 05:08:36;;;;;;;29.50;15.37;;;8.10;99.90;;;;;;5057146;28;20667;-71
2022/10/13 05:11:03;;;;;;;22.87;10.47;;;8.10;99.90;;;;;;5055126;28;20213;-70
2022/10/13 05:13:30;;;;;;;18.70;9.37;;;8.00;99.90;;;;;;5065381;28;20221;-71
2022/10/13 05:15:57;;;;;;;22.67;11.17;;;8.10;99.90;;;;;;5074683;28;20205;-70
2022/10/13 05:18:24;;;;;;;21.90;11.03;;;8.10;99.90;;;;;;5075193;28;20205;-72
2022/10/13 05:20:51;;;;;;;27.57;14.20;;;8.10;99.90;;;;;;5074942;28;20207;-72
2022/10/13 05:23:18;;;;;;;27.03;12.70;;;8.10;99.90;;;;;;5074398;28;20613;-70
2022/10/13 05:25:46;;;;;;;24.63;11.70;;;8.20;99.90;;;;;;5068065;28;20197;-71
2022/10/13 05:28:13;;;;;;;24.90;11.97;;;8.20;99.90;;;;;;5061561;28;20205;-70
2022/10/13 05:30:40;;;;;;;25.67;12.20;;;8.20;99.90;;;;;;5062790;28;20227;-70
2022/10/13 05:33:08;;;;;;;23.20;11.88;;;8.00;99.90;;;;;;5063516;28;20464;-69
2022/10/13 05:35:34;;;;;;;28.07;12.13;;;8.00;99.90;;;;;;5053092;28;20551;-71
2022/10/13 05:38:01;;;;;;;22.93;11.20;;;8.10;99.90;;;;;;5061001;28;20220;-72
2022/10/13 05:40:28;;;;;;;20.10;11.03;;;8.10;99.90;;;;;;5062116;28;20197;-69
2022/10/13 05:42:56;;;;;;;21.60;10.50;;;8.10;99.90;;;;;;5060534;28;20201;-70
2022/10/13 05:45:24;;;;;;;24.47;11.13;;;8.20;99.90;;;;;;5062767;28;20878;-70
2022/10/13 05:47:51;;;;;;;19.00;10.17;;;8.20;99.90;;;;;;5063518;28;20985;-70
2022/10/13 05:50:18;;;;;;;25.40;10.80;;;8.20;99.90;;;;;;5054372;28;20882;-73
2022/10/13 05:52:45;;;;;;;25.53;10.73;;;8.30;99.90;;;;;;5053940;28;20276;-73
2022/10/13 05:55:16;;;;;;;22.23;11.70;;;8.30;99.90;;;;;;5054096;28;20717;-71
2022/10/13 05:57:46;;;;;;;23.03;11.00;;;8.30;99.90;;;;;;5053300;28;20252;-72
2022/10/13 06:00:17;;;;;;;25.33;11.30;;;8.30;99.90;;;;;;5057491;28;20204;-70
2022/10/13 06:02:49;;;;;;;22.10;10.57;;;8.30;99.90;;;;;;5070005;28;20622;-72
2022/10/13 06:05:19;;;;;;;22.53;11.40;;;8.40;99.90;;;;;;5072333;28;20185;-71
2022/10/13 06:07:46;;;;;;;21.23;11.23;;;8.40;99.90;;;;;;5071550;28;20546;-71
2022/10/13 06:10:14;;;;;;;23.33;11.30;;;8.40;99.90;;;;;;5071688;28;20350;-71
2022/10/13 06:12:41;;;;;;;21.90;10.80;;;8.50;99.90;;;;;;5071956;28;20200;-72
2022/10/13 06:15:09;;;;;;;21.70;10.93;;;8.50;99.90;;;;;;5071655;28;20205;-71
2022/10/13 06:17:38;;;;;;;20.63;10.27;;;8.60;99.90;;;;;;5069978;28;20526;-71
2022/10/13 06:20:06;;;;;;;22.87;10.03;;;8.60;99.90;;;;;;5072106;28;20212;-70
2022/10/13 06:22:34;;;;;;;22.37;10.50;;;8.70;99.90;;;;;;5059559;28;20682;-71
2022/10/13 06:25:02;;;;;;;26.23;10.47;;;8.80;99.90;;;;;;5053206;28;20212;-71
2022/10/13 06:27:29;;;;;;;20.33;10.00;;;8.80;99.90;;;;;;5061063;28;20264;-72
2022/10/13 06:29:55;;;;;;;23.90;10.80;;;8.90;99.90;;;;;;5066365;28;20204;-70
2022/10/13 06:32:22;;;;;;;25.00;10.50;;;8.90;99.90;;;;;;5073070;28;20231;-70
2022/10/13 06:34:50;;;;;;;24.40;10.47;;;9.00;99.90;;;;;;5072644;28;20211;-70
2022/10/13 06:37:17;;;;;;;20.60;10.50;;;9.00;99.90;;;;;;5073511;28;20209;-72
2022/10/13 06:39:44;;;;;;;21.50;9.70;;;9.10;99.90;;;;;;5073277;28;20209;-71
2022/10/13 06:42:11;;;;;;;16.97;9.00;;;9.10;99.90;;;;;;5073706;28;20203;-70
2022/10/13 06:44:37;;;;;;;22.47;9.23;;;9.20;99.90;;;;;;5071491;28;20202;-70
2022/10/13 06:47:05;;;;;;;16.53;8.60;;;9.20;99.90;;;;;;5072867;28;20209;-72
2022/10/13 06:49:32;;;;;;;21.43;9.00;;;9.30;99.90;;;;;;5073869;28;20201;-74
2022/10/13 06:52:01;;;;;;;24.53;9.47;;;9.30;99.90;;;;;;5070332;28;20238;-73
2022/10/13 06:54:27;;;;;;;23.13;8.87;;;9.40;99.90;;;;;;5053108;28;20208;-71
2022/10/13 06:56:54;;;;;;;22.10;8.90;;;9.40;99.90;;;;;;5067952;28;20204;-72
2022/10/13 06:59:21;;;;;;;19.10;8.53;;;9.40;99.90;;;;;;5058317;28;20202;-73
2022/10/13 07:01:49;;;;;;;17.87;8.03;;;9.40;99.90;;;;;;5052938;28;20205;-72
2022/10/13 07:04:16;;;;;;;18.80;8.17;;;9.40;99.90;;;;;;5052918;28;20633;-71
2022/10/13 07:06:42;;;;;;;21.87;8.60;;;9.40;99.90;;;;;;5052283;28;20210;-71
2022/10/13 07:09:11;;;;;;;15.27;7.70;;;9.50;99.90;;;;;;5054769;28;20221;-70
2022/10/13 07:11:37;;;;;;;17.10;8.80;;;9.40;99.90;;;;;;5051969;28;20221;-71
2022/10/13 07:14:04;;;;;;;23.77;8.10;;;9.50;99.90;;;;;;5052467;28;20212;-72
2022/10/13 07:16:31;;;;;;;20.07;8.33;;;9.50;99.90;;;;;;5059791;28;20207;-70
2022/10/13 07:18:58;;;;;;;14.60;7.70;;;9.60;99.90;;;;;;5073112;28;20211;-70
2022/10/13 07:21:25;;;;;;;17.77;8.20;;;9.70;99.90;;;;;;5071644;28;20208;-72
2022/10/13 07:23:51;;;;;;;18.17;8.37;;;9.80;99.90;;;;;;5056996;28;20209;-71
2022/10/13 07:26:20;;;;;;;20.87;7.53;;;9.90;99.90;;;;;;5053771;28;20571;-71
2022/10/13 07:28:47;;;;;;;16.30;8.37;;;10.00;99.90;;;;;;5056972;28;20217;-72
2022/10/13 07:31:16;;;;;;;19.10;7.83;;;10.10;99.90;;;;;;5064239;28;20308;-72
2022/10/13 07:33:45;;;;;;;17.97;7.80;;;10.10;99.90;;;;;;5057544;28;20192;-71
2022/10/13 07:36:12;;;;;;;19.13;8.47;;;10.20;99.90;;;;;;5072552;28;20207;-71
2022/10/13 07:38:39;;;;;;;16.40;7.57;;;10.20;99.90;;;;;;5059874;28;20210;-70
2022/10/13 07:41:09;;;;;;;21.27;8.93;;;10.30;99.90;;;;;;5052148;28;20209;-72
2022/10/13 07:43:37;;;;;;;18.37;8.90;;;10.30;99.90;;;;;;5061090;28;20625;-72
2022/10/13 07:46:05;;;;;;;18.17;8.20;;;10.40;99.90;;;;;;5072196;28;20208;-70
2022/10/13 07:48:32;;;;;;;18.17;7.47;;;10.50;99.90;;;;;;5071778;28;20219;-71
2022/10/13 07:50:59;;;;;;;16.97;7.60;;;10.60;99.90;;;;;;5058483;28;20230;-70
2022/10/13 07:53:26;;;;;;;18.83;7.97;;;10.60;99.90;;;;;;5051892;28;20311;-71
2022/10/13 07:55:53;;;;;;;21.57;9.00;;;10.70;99.90;;;;;;5051522;28;20732;-70
2022/10/13 07:58:20;;;;;;;16.10;7.93;;;10.70;99.90;;;;;;5051554;28;20672;-71
2022/10/13 08:00:56;;;;;;;18.13;8.20;;;10.70;99.90;;;;;;5052374;28;20650;-70
2022/10/13 08:03:23;;;;;;;21.70;8.77;;;10.80;99.90;;;;;;5051595;28;20200;-71
2022/10/13 08:05:50;;;;;;;22.03;8.97;;;10.90;99.90;;;;;;5051970;28;20202;-70
2022/10/13 08:08:17;;;;;;;19.00;9.17;;;11.00;99.90;;;;;;5051434;28;20257;-73
2022/10/13 08:10:43;;;;;;;18.93;8.80;;;11.00;99.90;;;;;;5051545;28;20205;-72
2022/10/13 08:13:11;;;;;;;16.90;9.17;;;11.10;99.90;;;;;;5051838;28;20567;-71
2022/10/13 08:15:40;;;;;;;19.23;9.40;;;11.20;99.90;;;;;;5052541;28;20213;-72
2022/10/13 08:18:08;;;;;;;20.63;8.93;;;11.20;99.90;;;;;;5051784;28;20209;-71
2022/10/13 08:20:35;;;;;;;18.10;8.33;;;11.30;99.90;;;;;;5051162;28;20213;-70
2022/10/13 08:23:02;;;;;;;22.63;9.20;;;11.40;99.90;;;;;;5051698;28;20289;-69
2022/10/13 08:25:29;;;;;;;20.67;9.10;;;11.50;99.90;;;;;;5051057;28;20205;-70
2022/10/13 08:27:56;;;;;;;20.83;8.43;;;11.50;99.90;;;;;;5068201;28;20209;-70
2022/10/13 08:30:23;;;;;;;22.30;8.70;;;11.60;99.90;;;;;;5071363;28;20205;-70
2022/10/13 08:32:50;;;;;;;17.63;7.63;;;11.60;99.90;;;;;;5067716;28;20233;-70
2022/10/13 08:35:18;;;;;;;20.57;8.10;;;11.70;99.90;;;;;;5051360;28;20261;-71
2022/10/13 08:37:45;;;;;;;16.13;7.57;;;11.80;99.90;;;;;;5052295;28;20225;-71
2022/10/13 08:40:15;;;;;;;16.60;7.30;;;11.80;99.90;;;;;;5053621;28;20229;-73
2022/10/13 08:42:43;;;;;;;16.57;6.10;;;11.80;99.90;;;;;;5064471;28;20211;-73
2022/10/13 08:45:18;;;;;;;15.80;5.70;;;11.90;99.90;;;;;;5058803;28;20229;-73
2022/10/13 08:47:48;;;;;;;15.40;5.37;;;11.90;99.90;;;;;;5064823;28;20203;-74
2022/10/13 08:50:19;;;;;;;10.33;5.17;;;11.90;99.90;;;;;;5070679;28;20212;-70
2022/10/13 08:52:49;;;;;;;13.37;6.53;;;12.00;99.90;;;;;;5059143;28;20216;-70
2022/10/13 08:55:23;;;;;;;14.20;6.00;;;12.00;99.90;;;;;;5069583;28;20197;-71
2022/10/13 08:57:51;;;;;;;14.47;5.50;;;12.10;99.90;;;;;;5075234;28;20273;-70
2022/10/13 09:00:19;;;;;;;15.43;5.80;;;12.20;99.90;;;;;;5073954;28;20769;-71
2022/10/13 09:02:48;;;;;;;13.13;5.80;;;12.30;99.90;;;;;;5040037;28;20562;-70
2022/10/13 09:05:27;;;;;;;14.43;6.10;;;12.30;99.90;;;;;;5058836;28;20244;-70
2022/10/13 09:07:59;;;;;;;16.23;6.80;;;12.40;99.90;;;;;;5054682;28;20212;-71
2022/10/13 09:10:27;;;;;;;12.73;5.23;;;12.50;99.90;;;;;;5053774;28;20271;-71
2022/10/13 09:12:59;;;;;;;15.20;6.27;;;12.50;99.90;;;;;;5054197;28;20237;-71
2022/10/13 09:15:28;;;;;;;14.37;6.37;;;12.60;99.90;;;;;;5054494;28;20231;-71
2022/10/13 09:18:10;;;;;;;13.87;6.10;;;12.60;99.90;;;;;;5036350;28;20211;-71
2022/10/13 09:20:42;;;;;;;14.93;6.30;;;12.70;99.90;;;;;;5054765;28;20570;-71
2022/10/13 09:23:21;;;;;;;16.60;5.90;;;12.70;99.90;;;;;;5052944;28;20583;-70
2022/10/13 09:25:54;;;;;;;15.37;6.30;;;12.80;99.90;;;;;;5061416;28;20213;-71
2022/10/13 09:28:26;;;;;;;10.57;4.73;;;12.90;99.90;;;;;;5071514;28;20728;-71
2022/10/13 09:31:04;;;;;;;13.67;5.80;;;12.90;99.90;;;;;;5069884;28;20578;-70
2022/10/13 09:33:36;;;;;;;13.83;5.50;;;13.00;99.90;;;;;;5019701;28;20297;-72
2022/10/13 09:36:12;;;;;;;16.23;5.07;;;13.00;99.90;;;;;;5053833;28;20190;-72
2022/10/13 09:38:41;;;;;;;12.27;4.90;;;13.10;99.90;;;;;;5053777;28;20194;-70
2022/10/13 09:41:22;;;;;;;13.33;5.00;;;13.10;99.90;;;;;;5041365;28;20213;-70
2022/10/13 09:44:28;;;;;;;16.87;5.10;;;13.10;99.90;;;;;;5053872;28;20193;-70
2022/10/13 09:46:58;;;;;;;14.60;5.17;;;13.10;99.90;;;;;;5053611;28;20280;-74
2022/10/13 09:49:36;;;;;;;13.30;5.27;;;13.20;99.90;;;;;;5062199;28;20228;-70
2022/10/13 09:52:14;;;;;;;17.40;5.80;;;13.20;99.90;;;;;;5052498;28;20240;-69
2022/10/13 09:54:47;;;;;;;12.60;5.30;;;13.30;99.90;;;;;;5054180;28;20192;-72
2022/10/13 09:57:27;;;;;;;14.27;5.40;;;13.30;99.90;;;;;;5053164;28;20205;-71
2022/10/13 10:00:03;;;;;;;11.80;4.90;;;13.30;99.90;;;;;;5054017;28;20221;-71
2022/10/13 10:02:35;;;;;;;11.77;4.93;;;13.40;99.90;;;;;;5053639;28;20181;-69
2022/10/13 10:05:14;;;;;;;11.40;4.80;;;13.50;99.90;;;;;;5035985;28;20296;-69
2022/10/13 10:07:44;;;;;;;15.10;5.57;;;13.50;99.90;;;;;;5053146;28;20276;-70
2022/10/13 10:10:27;;;;;;;12.80;5.33;;;13.60;99.90;;;;;;5053440;28;20272;-70
2022/10/13 10:12:55;;;;;;;14.40;5.50;;;13.60;99.90;;;;;;5053679;28;20209;-69
2022/10/13 10:15:30;;;;;;;15.20;6.37;;;13.60;99.90;;;;;;5058152;28;20279;-70
2022/10/13 10:18:03;;;;;;;14.77;6.43;;;13.70;99.90;;;;;;5073073;28;20188;-74
2022/10/13 10:20:56;;;;;;;14.77;6.67;;;13.70;99.90;;;;;;5064792;28;20197;-70
2022/10/13 10:23:33;;;;;;;16.27;6.60;;;13.70;99.90;;;;;;5050402;28;20343;-70
2022/10/13 10:26:06;;;;;;;16.10;6.00;;;13.80;99.90;;;;;;5058210;28;20193;-70
2022/10/13 10:28:45;;;;;;;15.73;6.33;;;13.80;99.90;;;;;;5063881;28;20219;-72
2022/10/13 10:31:26;;;;;;;21.90;6.27;;;13.90;99.90;;;;;;5054167;28;20545;-71
2022/10/13 10:34:13;;;;;;;15.93;6.23;;;14.00;99.90;;;;;;5052719;28;20186;-70
2022/10/13 10:36:47;;;;;;;13.23;5.50;;;14.00;99.90;;;;;;5053220;28;20580;-69
2022/10/13 10:39:27;;;;;;;17.07;5.67;;;14.00;99.90;;;;;;5053244;28;20194;-70
2022/10/13 10:42:02;;;;;;;17.47;5.90;;;14.10;99.90;;;;;;5053796;28;20198;-70
2022/10/13 10:44:32;;;;;;;15.73;5.40;;;14.10;99.90;;;;;;5054608;28;20231;-69
2022/10/13 10:47:04;;;;;;;15.57;5.93;;;14.10;99.90;;;;;;5064014;28;20536;-70
2022/10/13 10:49:32;;;;;;;12.57;4.97;;;14.10;99.90;;;;;;5062939;28;20486;-72
2022/10/13 10:52:01;;;;;;;14.20;4.73;;;14.20;99.90;;;;;;5052597;28;20702;-72
2022/10/13 10:54:40;;;;;;;14.57;5.00;;;14.20;99.90;;;;;;5053828;28;20206;-71
2022/10/13 10:57:14;;;;;;;10.40;4.27;;;14.20;99.90;;;;;;5068808;28;20201;-71
2022/10/13 10:59:55;;;;;;;12.60;4.93;;;14.10;99.90;;;;;;5062753;28;20316;-72
2022/10/13 11:02:43;;;;;;;13.50;5.13;;;14.10;99.90;;;;;;5073171;28;20184;-71
2022/10/13 11:05:10;;;;;;;12.90;4.77;;;14.10;99.90;;;;;;5054479;28;20627;-71
2022/10/13 11:07:55;;;;;;;19.37;5.13;;;14.10;99.90;;;;;;5053669;28;20213;-70
2022/10/13 11:10:25;;;;;;;11.90;4.60;;;14.00;99.90;;;;;;5068887;28;20212;-70
2022/10/13 11:13:25;;;;;;;10.50;5.20;;;14.10;99.90;;;;;;5058484;28;20236;-70
2022/10/13 11:15:52;;;;;;;14.77;4.90;;;14.00;99.90;;;;;;5045787;28;20644;-71
2022/10/13 11:19:04;;;;;;;13.13;4.53;;;13.90;99.90;;;;;;5052558;28;20201;-70
2022/10/13 11:22:13;;;;;;;16.57;6.17;;;13.90;99.90;;;;;;5052465;28;20655;-70
2022/10/13 11:24:48;;;;;;;10.60;3.67;;;14.00;99.90;;;;;;5055572;28;20205;-70
2022/10/13 11:27:42;;;;;;;13.20;3.43;;;14.00;99.90;;;;;;5070641;28;20669;-72
2022/10/13 11:30:46;;;;;;;14.07;4.00;;;13.90;99.90;;;;;;5059806;28;20256;-72
2022/10/13 11:33:35;;;;;;;11.67;4.20;;;13.90;99.90;;;;;;4971185;28;20223;-72
2022/10/13 11:36:47;;;;;;;15.07;5.47;;;13.90;99.90;;;;;;5048740;28;20205;-70
2022/10/13 11:39:44;;;;;;;22.60;8.27;;;13.90;99.90;;;;;;5052230;28;20627;-72
2022/10/13 11:42:39;;;;;;;19.70;5.97;;;13.90;99.90;;;;;;5052411;28;20435;-72
2022/10/13 11:45:22;;;;;;;12.90;4.13;;;13.90;99.90;;;;;;5002153;28;20295;-71
2022/10/13 11:48:18;;;;;;;13.33;4.43;;;13.90;99.90;;;;;;5052033;28;20540;-72
2022/10/13 11:50:52;;;;;;;11.40;4.30;;;13.90;99.90;;;;;;5047255;28;20217;-71
2022/10/13 11:53:24;;;;;;;12.57;4.20;;;13.90;99.90;;;;;;5052061;28;20698;-70
2022/10/13 11:55:52;;;;;;;11.17;3.87;;;13.80;99.90;;;;;;5052105;28;20190;-71
2022/10/13 11:58:21;;;;;;;11.80;4.00;;;13.80;99.90;;;;;;5053007;28;20233;-71
2022/10/13 12:00:54;;;;;;;14.50;4.20;;;13.80;99.90;;;;;;5052438;28;20213;-70
2022/10/13 12:03:22;;;;;;;12.37;4.70;;;13.90;99.90;;;;;;5053215;28;20221;-70
2022/10/13 12:05:50;;;;;;;12.37;4.00;;;13.90;99.90;;;;;;5052101;28;20560;-71
2022/10/13 12:08:18;;;;;;;11.77;4.20;;;13.90;99.90;;;;;;5063233;28;20200;-70
2022/10/13 12:10:45;;;;;;;11.20;4.17;;;13.90;99.90;;;;;;5071557;28;20209;-72
2022/10/13 12:13:21;;;;;;;12.93;4.73;;;13.80;99.90;;;;;;5072210;28;20312;-70
2022/10/13 12:15:48;;;;;;;15.37;4.47;;;13.90;99.90;;;;;;5070564;28;20207;-71
2022/10/13 12:18:22;;;;;;;9.10;3.80;;;14.00;99.90;;;;;;5075899;28;20208;-71
2022/10/13 12:20:53;;;;;;;12.17;3.83;;;14.00;99.90;;;;;;5075761;28;20585;-70
2022/10/13 12:23:20;;;;;;;11.80;3.93;;;14.10;99.90;;;;;;5075803;28;20200;-69
2022/10/13 12:25:55;;;;;;;14.30;3.87;;;14.10;99.90;;;;;;5074981;28;20217;-70
2022/10/13 12:28:22;;;;;;;8.23;3.27;;;14.00;99.90;;;;;;5057242;28;20212;-72
2022/10/13 12:30:52;;;;;;;10.40;4.30;;;14.10;99.90;;;;;;5067414;28;20202;-71
2022/10/13 12:33:27;;;;;;;12.63;3.60;;;14.20;99.90;;;;;;5065313;28;20212;-70
2022/10/13 12:35:54;;;;;;;15.23;4.10;;;14.00;99.90;;;;;;5062758;28;20201;-71
2022/10/13 12:38:22;;;;;;;9.43;3.27;;;13.90;99.90;;;;;;5055822;28;20212;-71
2022/10/13 12:40:50;;;;;;;11.10;3.70;;;13.90;99.90;;;;;;5055955;28;20214;-71
2022/10/13 12:43:19;;;;;;;12.43;3.93;;;14.00;99.90;;;;;;5055359;28;20566;-71
2022/10/13 12:45:46;;;;;;;15.90;4.40;;;14.10;99.90;;;;;;5059954;28;20205;-71
2022/10/13 12:48:32;;;;;;;9.40;3.60;;;14.10;99.90;;;;;;5068608;28;20551;-71
2022/10/13 12:51:15;;;;;;;10.23;3.60;;;14.10;99.90;;;;;;5054714;28;20217;-74
2022/10/13 12:53:42;;;;;;;10.47;4.13;;;14.10;99.90;;;;;;5054959;28;20578;-71
2022/10/13 12:56:26;;;;;;;11.47;4.20;;;14.10;99.90;;;;;;5055089;28;20211;-71
2022/10/13 12:58:53;;;;;;;10.30;4.93;;;14.10;99.90;;;;;;5054540;28;20225;-71
2022/10/13 13:01:29;;;;;;;12.33;4.23;;;14.10;99.90;;;;;;5072432;28;20242;-73